createdAt,value
2019-02-04T00:00:55.777Z,-80
2019-02-04T00:03:28.310Z,-80
2019-02-04T00:06:00.677Z,-84
2019-02-04T00:08:32.826Z,-81
2019-02-04T00:11:04.665Z,-81
2019-02-04T00:13:36.853Z,-80
2019-02-04T00:16:08.755Z,-81
2019-02-04T00:18:40.705Z,-81
2019-02-04T00:21:12.562Z,-82
2019-02-04T00:23:44.661Z,-80
2019-02-04T00:26:16.498Z,-82
2019-02-04T00:28:48.406Z,-81
2019-02-04T00:31:20.259Z,-81
2019-02-04T00:33:52.958Z,-80
2019-02-04T00:36:25.000Z,-79
2019-02-04T00:38:56.934Z,-80
2019-02-04T00:41:28.762Z,-81
2019-02-04T00:44:00.806Z,-81
2019-02-04T00:46:32.644Z,-81
2019-02-04T00:49:04.627Z,-81
2019-02-04T00:51:36.603Z,-82
2019-02-04T00:54:08.686Z,-80
2019-02-04T00:56:46.147Z,-81
2019-02-04T00:59:18.358Z,-81
2019-02-04T01:01:50.202Z,-80
2019-02-04T01:04:22.139Z,-81
2019-02-04T01:06:54.358Z,-81
2019-02-04T01:09:26.223Z,-82
2019-02-04T01:11:58.055Z,-81
2019-02-04T01:14:29.944Z,-81
2019-02-04T01:17:03.458Z,-80
2019-02-04T01:19:35.339Z,-80
2019-02-04T01:22:07.190Z,-80
2019-02-04T01:24:39.076Z,-81
2019-02-04T01:27:10.985Z,-80
2019-02-04T01:29:42.862Z,-81
2019-02-04T01:32:14.705Z,-81
2019-02-04T01:34:48.913Z,-81
2019-02-04T01:37:20.165Z,-81
2019-02-04T01:39:52.050Z,-81
2019-02-04T01:42:24.374Z,-81
2019-02-04T01:44:56.251Z,-81
2019-02-04T01:47:28.147Z,-81
2019-02-04T01:50:00.150Z,-80
2019-02-04T01:52:32.514Z,-83
2019-02-04T01:55:04.828Z,-84
2019-02-04T01:57:36.716Z,-85
2019-02-04T02:00:22.556Z,-86
2019-02-04T02:02:54.425Z,-83
2019-02-04T02:05:26.279Z,-84
2019-02-04T02:07:58.157Z,-84
2019-02-04T02:10:30.600Z,-83
2019-02-04T02:13:02.474Z,-84
2019-02-04T02:15:35.196Z,-83
2019-02-04T02:18:07.151Z,-83
2019-02-04T02:20:39.166Z,-84
2019-02-04T02:23:11.562Z,-84
2019-02-04T02:25:44.303Z,-84
2019-02-04T02:28:16.392Z,-83
2019-02-04T02:30:48.836Z,-84
2019-02-04T02:33:20.792Z,-84
2019-02-04T02:35:52.967Z,-83
2019-02-04T02:38:26.110Z,-84
2019-02-04T02:40:58.275Z,-83
2019-02-04T02:43:30.149Z,-84
2019-02-04T02:46:01.999Z,-84
2019-02-04T02:48:33.875Z,-84
2019-02-04T02:51:05.921Z,-83
2019-02-04T02:53:37.786Z,-84
2019-02-04T02:56:09.642Z,-84
2019-02-04T02:58:41.509Z,-84
2019-02-04T03:01:13.350Z,-84
2019-02-04T03:03:45.477Z,-84
2019-02-04T03:06:17.439Z,-84
2019-02-04T03:08:50.065Z,-84
2019-02-04T03:11:21.863Z,-83
2019-02-04T03:13:53.773Z,-83
2019-02-04T03:16:26.082Z,-83
2019-02-04T03:18:58.065Z,-84
2019-02-04T03:21:29.819Z,-84
2019-02-04T03:24:01.776Z,-84
2019-02-04T03:26:34.099Z,-84
2019-02-04T03:29:06.278Z,-84
2019-02-04T03:31:40.016Z,-84
2019-02-04T03:34:11.820Z,-84
2019-02-04T03:36:43.695Z,-84
2019-02-04T03:39:15.700Z,-85
2019-02-04T03:41:47.545Z,-84
2019-02-04T03:44:19.405Z,-84
2019-02-04T03:46:51.244Z,-85
2019-02-04T03:49:23.390Z,-84
2019-02-04T03:51:55.244Z,-84
2019-02-04T03:54:27.145Z,-85
2019-02-04T03:56:59.150Z,-84
2019-02-04T03:59:31.064Z,-84
2019-02-04T04:02:07.034Z,-84
2019-02-04T04:04:41.941Z,-84
2019-02-04T04:07:13.885Z,-85
2019-02-04T04:09:49.556Z,-84
2019-02-04T04:12:21.819Z,-84
2019-02-04T04:14:54.070Z,-85
2019-02-04T04:17:25.951Z,-85
2019-02-04T04:19:57.816Z,-84
2019-02-04T04:22:29.700Z,-85
2019-02-04T04:25:01.586Z,-84
2019-02-04T04:27:33.414Z,-84
2019-02-04T04:30:06.448Z,-85
2019-02-04T04:32:38.315Z,-84
2019-02-04T04:35:10.187Z,-84
2019-02-04T04:37:42.047Z,-84
2019-02-04T04:40:14.181Z,-85
2019-02-04T04:42:46.039Z,-85
2019-02-04T04:45:20.550Z,-84
2019-02-04T04:47:52.797Z,-85
2019-02-04T04:50:24.707Z,-84
2019-02-04T04:52:56.534Z,-85
2019-02-04T04:55:28.561Z,-84
2019-02-04T04:58:00.395Z,-84
2019-02-04T05:00:32.908Z,-84
2019-02-04T05:03:04.788Z,-84
2019-02-04T05:05:36.735Z,-84
2019-02-04T05:08:08.574Z,-84
2019-02-04T05:10:40.448Z,-84
2019-02-04T05:13:12.293Z,-84
2019-02-04T05:15:44.179Z,-84
2019-02-04T05:18:16.032Z,-84
2019-02-04T05:20:47.917Z,-84
2019-02-04T05:23:19.841Z,-84
2019-02-04T05:25:51.761Z,-83
2019-02-04T05:28:23.782Z,-83
2019-02-04T05:30:55.653Z,-82
2019-02-04T05:33:27.561Z,-83
2019-02-04T05:35:59.591Z,-83
2019-02-04T05:38:31.463Z,-84
2019-02-04T05:41:03.345Z,-84
2019-02-04T05:43:35.268Z,-84
2019-02-04T05:46:07.127Z,-85
2019-02-04T05:48:49.124Z,-83
2019-02-04T05:51:12.745Z,-82
2019-02-04T05:53:44.707Z,-86
2019-02-04T05:56:16.662Z,-87
2019-02-04T05:58:50.612Z,-86
2019-02-04T06:01:22.566Z,-83
2019-02-04T06:03:54.616Z,-83
2019-02-04T06:06:26.513Z,-83
2019-02-04T06:08:58.473Z,-83
2019-02-04T06:11:30.509Z,-83
2019-02-04T06:14:02.410Z,-84
2019-02-04T06:16:34.342Z,-84
2019-02-04T06:19:06.337Z,-85
2019-02-04T06:21:38.276Z,-84
2019-02-04T06:24:10.176Z,-85
2019-02-04T06:26:42.120Z,-85
2019-02-04T06:29:14.001Z,-84
2019-02-04T06:31:45.904Z,-85
2019-02-04T06:34:17.808Z,-83
2019-02-04T06:36:49.729Z,-83
2019-02-04T06:39:21.623Z,-83
2019-02-04T06:41:53.485Z,-84
2019-02-04T06:44:25.373Z,-84
2019-02-04T06:46:57.798Z,-83
2019-02-04T06:49:29.697Z,-83
2019-02-04T06:52:01.563Z,-83
2019-02-04T06:54:33.519Z,-83
2019-02-04T06:57:05.373Z,-83
2019-02-04T06:59:37.631Z,-83
2019-02-04T07:02:09.692Z,-84
2019-02-04T07:04:41.649Z,-83
2019-02-04T07:07:15.157Z,-84
2019-02-04T07:09:47.209Z,-83
2019-02-04T07:12:19.240Z,-85
2019-02-04T07:14:51.257Z,-84
2019-02-04T07:17:23.285Z,-85
2019-02-04T07:19:55.259Z,-85
2019-02-04T07:22:27.312Z,-84
2019-02-04T07:24:59.434Z,-82
2019-02-04T07:27:31.376Z,-83
2019-02-04T07:30:03.394Z,-85
2019-02-04T07:32:35.362Z,-85
2019-02-04T07:35:08.434Z,-83
2019-02-04T07:37:40.285Z,-83
2019-02-04T07:40:19.614Z,-83
2019-02-04T07:42:51.782Z,-83
2019-02-04T07:45:23.762Z,-83
2019-02-04T07:47:55.967Z,-83
2019-02-04T07:50:27.849Z,-82
2019-02-04T07:52:59.707Z,-84
2019-02-04T07:55:31.585Z,-83
2019-02-04T07:58:03.408Z,-82
2019-02-04T08:00:35.312Z,-84
2019-02-04T08:03:07.161Z,-84
2019-02-04T08:05:39.049Z,-82
2019-02-04T08:08:10.910Z,-82
2019-02-04T08:10:42.844Z,-83
2019-02-04T08:13:14.710Z,-83
2019-02-04T08:15:46.597Z,-84
2019-02-04T08:18:18.435Z,-84
2019-02-04T08:20:50.318Z,-82
2019-02-04T08:23:22.642Z,-83
2019-02-04T08:25:54.531Z,-83
2019-02-04T08:28:26.380Z,-84
2019-02-04T08:30:58.248Z,-84
2019-02-04T08:33:30.092Z,-84
2019-02-04T08:36:02.454Z,-83
2019-02-04T08:38:34.282Z,-84
2019-02-04T08:41:06.162Z,-83
2019-02-04T08:43:38.022Z,-83
2019-02-04T08:46:09.908Z,-84
2019-02-04T08:48:42.235Z,-83
2019-02-04T08:51:14.204Z,-84
2019-02-04T08:53:46.069Z,-84
2019-02-04T08:56:17.955Z,-83
2019-02-04T08:58:57.119Z,-84
2019-02-04T09:01:30.557Z,-84
2019-02-04T09:04:02.411Z,-84
2019-02-04T09:06:34.395Z,-84
2019-02-04T09:09:09.748Z,-83
2019-02-04T09:11:41.757Z,-84
2019-02-04T09:14:13.604Z,-84
2019-02-04T09:16:45.506Z,-84
2019-02-04T09:19:17.389Z,-83
2019-02-04T09:21:49.263Z,-85
2019-02-04T09:24:21.226Z,-83
2019-02-04T09:26:53.138Z,-84
2019-02-04T09:29:24.998Z,-84
2019-02-04T09:31:56.890Z,-83
2019-02-04T09:34:29.921Z,-84
2019-02-04T09:37:02.043Z,-84
2019-02-04T09:39:33.946Z,-83
2019-02-04T09:42:06.237Z,-83
2019-02-04T09:44:38.073Z,-84
2019-02-04T09:47:09.960Z,-84
2019-02-04T09:49:42.291Z,-85
2019-02-04T09:52:14.195Z,-84
2019-02-04T09:54:46.041Z,-84
2019-02-04T09:57:17.928Z,-84
2019-02-04T09:59:49.909Z,-84
2019-02-04T10:02:22.233Z,-84
2019-02-04T10:04:54.153Z,-84
2019-02-04T10:07:26.047Z,-84
2019-02-04T10:09:59.005Z,-86
2019-02-04T10:12:30.985Z,-86
2019-02-04T10:15:02.854Z,-87
2019-02-04T10:17:34.764Z,-87
2019-02-04T10:20:07.849Z,-87
2019-02-04T10:22:39.904Z,-87
2019-02-04T10:25:13.877Z,-87
2019-02-04T10:27:45.819Z,-86
2019-02-04T10:30:22.262Z,-86
2019-02-04T10:32:54.247Z,-86
2019-02-04T10:35:26.261Z,-86
2019-02-04T10:37:58.101Z,-86
2019-02-04T10:40:30.160Z,-86
2019-02-04T10:43:02.293Z,-86
2019-02-04T10:45:34.196Z,-86
2019-02-04T10:48:06.756Z,-86
2019-02-04T10:50:46.407Z,-86
2019-02-04T10:53:13.893Z,-86
2019-02-04T10:55:45.865Z,-86
2019-02-04T10:58:17.797Z,-85
2019-02-04T11:00:50.843Z,-84
2019-02-04T11:03:22.991Z,-86
2019-02-04T11:05:54.846Z,-85
2019-02-04T11:08:26.949Z,-86
2019-02-04T11:10:58.986Z,-86
2019-02-04T11:13:30.908Z,-86
2019-02-04T11:16:02.927Z,-85
2019-02-04T11:18:34.846Z,-86
2019-02-04T11:21:06.850Z,-87
2019-02-04T11:23:38.844Z,-86
2019-02-04T11:26:10.848Z,-86
2019-02-04T11:28:42.728Z,-85
2019-02-04T11:31:14.549Z,-85
2019-02-04T11:33:46.508Z,-85
2019-02-04T11:36:18.394Z,-87
2019-02-04T11:38:50.299Z,-87
2019-02-04T11:41:22.386Z,-86
2019-02-04T11:43:56.059Z,-86
2019-02-04T11:46:28.107Z,-87
2019-02-04T11:49:00.277Z,-86
2019-02-04T11:51:32.138Z,-90
2019-02-04T11:54:04.027Z,-86
2019-02-04T11:56:35.885Z,-85
2019-02-04T11:59:07.778Z,-85
2019-02-04T12:01:39.634Z,-85
2019-02-04T12:04:11.515Z,-85
2019-02-04T12:06:43.395Z,-85
2019-02-04T12:09:15.279Z,-85
2019-02-04T12:11:47.165Z,-86
2019-02-04T12:14:19.058Z,-85
2019-02-04T12:16:52.482Z,-87
2019-02-04T12:19:24.662Z,-86
2019-02-04T12:21:56.625Z,-89
2019-02-04T12:24:28.979Z,-87
2019-02-04T12:27:00.829Z,-85
2019-02-04T12:29:33.569Z,-83
2019-02-04T12:32:06.714Z,-87
2019-02-04T12:34:38.627Z,-85
2019-02-04T12:37:10.670Z,-88
2019-02-04T12:39:42.623Z,-86
2019-02-04T12:42:14.573Z,-86
2019-02-04T12:44:46.471Z,-85
2019-02-04T12:47:18.395Z,-85
2019-02-04T12:49:50.541Z,-85
2019-02-04T12:52:22.414Z,-85
2019-02-04T12:54:54.373Z,-85
2019-02-04T12:57:26.248Z,-86
2019-02-04T12:59:58.397Z,-85
2019-02-04T13:02:30.299Z,-85
2019-02-04T13:05:02.193Z,-85
2019-02-04T13:07:34.164Z,-85
2019-02-04T13:10:06.522Z,-84
2019-02-04T13:12:38.369Z,-84
2019-02-04T13:15:14.278Z,-85
2019-02-04T13:17:46.141Z,-84
2019-02-04T13:20:21.059Z,-84
2019-02-04T13:22:53.018Z,-84
2019-02-04T13:25:27.506Z,-85
2019-02-04T13:28:00.752Z,-87
2019-02-04T13:30:33.546Z,-85
2019-02-04T13:33:05.440Z,-85
2019-02-04T13:35:37.811Z,-85
2019-02-04T13:38:09.954Z,-86
2019-02-04T13:40:44.526Z,-86
2019-02-04T13:43:16.755Z,-85
2019-02-04T13:45:48.602Z,-84
2019-02-04T13:48:20.564Z,-84
2019-02-04T13:50:52.502Z,-84
2019-02-04T13:53:26.876Z,-84
2019-02-04T13:55:57.964Z,-83
2019-02-04T13:58:29.841Z,-83
2019-02-04T14:01:01.766Z,-83
2019-02-04T14:03:33.625Z,-84
2019-02-04T14:06:05.830Z,-84
2019-02-04T14:08:37.774Z,-83
2019-02-04T14:11:10.127Z,-84
2019-02-04T14:13:42.192Z,-86
2019-02-04T14:16:14.100Z,-85
2019-02-04T14:18:46.097Z,-85
2019-02-04T14:21:18.124Z,-84
2019-02-04T14:23:50.296Z,-83
2019-02-04T14:26:22.189Z,-83
2019-02-04T14:28:54.917Z,-83
2019-02-04T14:31:26.836Z,-83
2019-02-04T14:33:58.782Z,-83
2019-02-04T14:36:30.888Z,-82
2019-02-04T14:39:04.289Z,-83
2019-02-04T14:41:36.164Z,-83
2019-02-04T14:44:28.285Z,-83
2019-02-04T14:47:17.936Z,-84
2019-02-04T14:50:32.730Z,-84
2019-02-04T14:54:01.888Z,-84
2019-02-04T14:57:33.675Z,-85
2019-02-04T15:00:56.386Z,-84
2019-02-04T15:04:06.811Z,-83
2019-02-04T15:07:46.845Z,-83
2019-02-04T15:10:45.527Z,-86
2019-02-04T15:14:19.952Z,-83
2019-02-04T15:18:01.565Z,-85
2019-02-04T15:21:19.828Z,-83
2019-02-04T15:25:06.195Z,-86
2019-02-04T15:28:10.455Z,-85
2019-02-04T15:31:44.463Z,-83
2019-02-04T15:35:25.580Z,-83
2019-02-04T15:38:37.481Z,-82
2019-02-04T15:42:15.181Z,-83
2019-02-04T15:45:29.652Z,-83
2019-02-04T15:48:11.314Z,-84
2019-02-04T15:51:29.871Z,-83
2019-02-04T15:54:05.899Z,-84
2019-02-04T15:56:37.859Z,-84
2019-02-04T15:59:09.824Z,-84
2019-02-04T16:01:43.134Z,-83
2019-02-04T16:04:36.086Z,-84
2019-02-04T16:07:11.016Z,-84
2019-02-04T16:09:42.888Z,-84
2019-02-04T16:12:14.760Z,-84
2019-02-04T16:14:46.641Z,-84
2019-02-04T16:17:18.552Z,-84
2019-02-04T16:19:53.360Z,-84
2019-02-04T16:22:24.175Z,-85
2019-02-04T16:24:56.357Z,-83
2019-02-04T16:27:28.295Z,-83
2019-02-04T16:30:00.330Z,-83
2019-02-04T16:32:32.328Z,-83
2019-02-04T16:35:04.752Z,-83
2019-02-04T16:37:36.986Z,-83
2019-02-04T16:40:12.453Z,-84
2019-02-04T16:42:44.326Z,-83
2019-02-04T16:45:17.687Z,-84
2019-02-04T16:47:49.482Z,-84
2019-02-04T16:50:27.583Z,-84
2019-02-04T16:53:09.972Z,-85
2019-02-04T16:55:33.430Z,-85
2019-02-04T16:58:05.331Z,-84
2019-02-04T17:00:37.220Z,-84
2019-02-04T17:03:09.092Z,-86
2019-02-04T17:05:42.240Z,-85
2019-02-04T17:08:14.342Z,-85
2019-02-04T17:10:46.301Z,-84
2019-02-04T17:13:18.293Z,-84
2019-02-04T17:15:50.232Z,-84
2019-02-04T17:18:22.136Z,-84
2019-02-04T17:20:53.981Z,-84
2019-02-04T17:23:25.853Z,-84
2019-02-04T17:25:59.570Z,-84
2019-02-04T17:28:40.570Z,-84
2019-02-04T17:31:12.611Z,-83
2019-02-04T17:33:44.523Z,-84
2019-02-04T17:36:16.772Z,-86
2019-02-04T17:38:49.046Z,-85
2019-02-04T17:41:21.068Z,-85
2019-02-04T17:43:53.130Z,-85
2019-02-04T17:46:25.739Z,-85
2019-02-04T17:48:57.710Z,-85
2019-02-04T17:51:31.918Z,-85
2019-02-04T17:54:05.203Z,-85
2019-02-04T17:56:37.543Z,-85
2019-02-04T17:59:09.644Z,-84
2019-02-04T18:01:43.197Z,-85
2019-02-04T18:04:15.574Z,-85
2019-02-04T18:06:47.584Z,-85
2019-02-04T18:09:19.946Z,-85
2019-02-04T18:11:52.615Z,-84
2019-02-04T18:14:24.679Z,-85
2019-02-04T18:16:56.854Z,-86
2019-02-04T18:19:29.368Z,-86
2019-02-04T18:22:01.771Z,-86
2019-02-04T18:24:34.084Z,-86
2019-02-04T18:27:06.781Z,-86
2019-02-04T18:29:39.336Z,-86
2019-02-04T18:32:12.185Z,-86
2019-02-04T18:34:44.543Z,-86
2019-02-04T18:37:17.489Z,-86
2019-02-04T18:39:50.007Z,-86
2019-02-04T18:42:23.053Z,-86
2019-02-04T18:44:56.255Z,-86
2019-02-04T18:47:29.016Z,-86
2019-02-04T18:50:01.696Z,-86
2019-02-04T18:52:37.081Z,-86
2019-02-04T18:55:11.345Z,-86
2019-02-04T18:57:44.198Z,-86
2019-02-04T19:00:20.425Z,-86
2019-02-04T19:02:52.842Z,-86
2019-02-04T19:05:26.855Z,-86
2019-02-04T19:07:59.941Z,-85
2019-02-04T19:10:32.515Z,-86
2019-02-04T19:13:04.782Z,-86
2019-02-04T19:15:37.641Z,-85
2019-02-04T19:18:14.325Z,-86
2019-02-04T19:20:46.747Z,-86
2019-02-04T19:23:19.179Z,-86
2019-02-04T19:25:51.629Z,-86
2019-02-04T19:28:24.493Z,-86
2019-02-04T19:31:14.408Z,-87
2019-02-04T19:33:47.079Z,-87
2019-02-04T19:36:19.973Z,-87
2019-02-04T19:38:53.020Z,-87
2019-02-04T19:41:25.875Z,-87
2019-02-04T19:43:58.894Z,-88
2019-02-04T19:46:34.221Z,-88
2019-02-04T19:49:07.820Z,-84
2019-02-04T19:51:40.995Z,-84
2019-02-04T19:54:21.250Z,-85
2019-02-04T19:56:51.945Z,-84
2019-02-04T19:59:25.727Z,-84
2019-02-04T20:01:58.799Z,-84
2019-02-04T20:04:32.820Z,-84
2019-02-04T20:07:06.592Z,-84
2019-02-04T20:09:39.404Z,-84
2019-02-04T20:12:12.674Z,-83
2019-02-04T20:14:45.691Z,-84
2019-02-04T20:17:19.100Z,-84
2019-02-04T20:19:52.142Z,-84
2019-02-04T20:22:26.137Z,-84
2019-02-04T20:25:00.778Z,-84
2019-02-04T20:27:33.851Z,-84
2019-02-04T20:30:11.387Z,-84
2019-02-04T20:32:44.870Z,-84
2019-02-04T20:35:18.685Z,-84
2019-02-04T20:37:51.635Z,-84
2019-02-04T20:40:25.170Z,-85
2019-02-04T20:42:57.986Z,-84
2019-02-04T20:45:30.697Z,-83
2019-02-04T20:48:05.087Z,-84
2019-02-04T20:50:40.585Z,-84
2019-02-04T20:53:15.696Z,-84
2019-02-04T20:55:51.372Z,-84
2019-02-04T20:58:24.277Z,-84
2019-02-04T21:00:57.033Z,-85
2019-02-04T21:03:29.526Z,-84
2019-02-04T21:06:02.095Z,-84
2019-02-04T21:08:34.540Z,-85
2019-02-04T21:11:07.516Z,-85
2019-02-04T21:13:39.979Z,-85
2019-02-04T21:16:15.851Z,-83
2019-02-04T21:18:48.728Z,-84
2019-02-04T21:25:28.748Z,-89
2019-02-04T21:43:04.520Z,-89
2019-02-04T21:48:46.557Z,-91
2019-02-04T21:52:10.168Z,-87
2019-02-04T21:54:50.972Z,-87
2019-02-04T21:57:24.909Z,-87
2019-02-04T21:59:56.889Z,-87
2019-02-04T22:02:29.192Z,-87
2019-02-04T22:05:01.247Z,-89
